createdAt,value
2023-02-04T00:02:34.000Z,26.29
2023-02-04T00:12:35.000Z,24.8
2023-02-04T00:17:34.000Z,26.02
2023-02-04T00:22:34.000Z,26.29
2023-02-04T00:27:34.000Z,26.29
2023-02-04T00:32:35.000Z,25.52
2023-02-04T00:37:35.000Z,26.54
2023-02-04T00:42:34.000Z,24.83
2023-02-04T00:47:35.000Z,26.9
2023-02-04T00:52:34.000Z,24.89
2023-02-04T00:57:35.000Z,25.75
2023-02-04T01:02:35.000Z,26.24
2023-02-04T01:07:35.000Z,28.57
2023-02-04T01:12:35.000Z,26.11
2023-02-04T01:17:35.000Z,25.6
2023-02-04T01:22:35.000Z,28.49
2023-02-04T01:27:34.000Z,27.31
2023-02-04T01:32:35.000Z,26.11
2023-02-04T01:37:34.000Z,25.4
2023-02-04T01:47:34.000Z,25.58
2023-02-04T01:52:35.000Z,24.88
2023-02-04T01:57:35.000Z,26.7
2023-02-04T02:02:34.000Z,26.76
2023-02-04T02:07:34.000Z,27.71
2023-02-04T02:12:35.000Z,30.62
2023-02-04T02:17:35.000Z,30.09
2023-02-04T02:22:35.000Z,31.35
2023-02-04T02:27:35.000Z,31.35
2023-02-04T02:32:35.000Z,34.18
2023-02-04T02:37:34.000Z,31.5
2023-02-04T02:42:35.000Z,33.11
2023-02-04T02:47:35.000Z,34.88
2023-02-04T02:52:35.000Z,32.88
2023-02-04T02:57:35.000Z,31.2
2023-02-04T03:02:35.000Z,32.97
2023-02-04T03:07:35.000Z,31.2
2023-02-04T03:12:35.000Z,30.19
2023-02-04T03:17:35.000Z,30.36
2023-02-04T03:22:35.000Z,30.28
2023-02-04T03:27:34.000Z,29.24
2023-02-04T03:32:35.000Z,29.77
2023-02-04T03:37:34.000Z,29.86
2023-02-04T03:42:35.000Z,29.86
2023-02-04T03:47:34.000Z,32.45
2023-02-04T03:52:35.000Z,31.34
2023-02-04T03:57:34.000Z,31.56
2023-02-04T04:02:35.000Z,30.8
2023-02-04T04:07:35.000Z,32.05
2023-02-04T04:12:35.000Z,31.36
2023-02-04T04:17:34.000Z,32.58
2023-02-04T04:22:35.000Z,32.82
2023-02-04T04:27:35.000Z,33.14
2023-02-04T04:32:35.000Z,32.83
2023-02-04T04:37:34.000Z,32.82
2023-02-04T04:42:35.000Z,33.21
2023-02-04T04:47:34.000Z,33.99
2023-02-04T04:52:35.000Z,33.46
2023-02-04T04:57:35.000Z,34.59
2023-02-04T05:02:34.000Z,34.59
2023-02-04T05:07:35.000Z,33.7
2023-02-04T05:12:34.000Z,33.82
2023-02-04T05:27:35.000Z,36.2
2023-02-04T05:32:34.000Z,35.67
2023-02-04T05:37:35.000Z,36.04
2023-02-04T05:42:35.000Z,36.71
2023-02-04T05:47:34.000Z,36.63
2023-02-04T05:52:35.000Z,35.57
2023-02-04T05:57:35.000Z,35.55
2023-02-04T06:02:35.000Z,34.63
2023-02-04T06:07:35.000Z,34.94
2023-02-04T06:12:35.000Z,34.94
2023-02-04T06:17:35.000Z,35.32
2023-02-04T06:22:34.000Z,35.3
2023-02-04T06:27:35.000Z,37.42
2023-02-04T06:37:34.000Z,33.78
2023-02-04T06:42:35.000Z,33.5
2023-02-04T06:47:35.000Z,34.04
2023-02-04T06:52:35.000Z,34.04
2023-02-04T06:57:34.000Z,32.74
2023-02-04T07:02:35.000Z,31.7
2023-02-04T07:07:34.000Z,32.45
2023-02-04T07:12:35.000Z,35.26
2023-02-04T07:17:35.000Z,40.4
2023-02-04T07:22:35.000Z,40.38
2023-02-04T07:27:34.000Z,43.14
2023-02-04T07:32:35.000Z,43.88
2023-02-04T07:37:35.000Z,41.94
2023-02-04T07:42:35.000Z,44.19
2023-02-04T07:47:35.000Z,42.9
2023-02-04T07:52:35.000Z,44.33
2023-02-04T07:57:35.000Z,43.01
2023-02-04T08:02:35.000Z,42.32
2023-02-04T08:12:35.000Z,41.48
2023-02-04T08:17:35.000Z,41.33
2023-02-04T08:27:35.000Z,39.21
2023-02-04T08:32:35.000Z,37.96
2023-02-04T08:37:35.000Z,38.49
2023-02-04T08:42:34.000Z,40.32
2023-02-04T08:47:35.000Z,40.32
2023-02-04T08:52:34.000Z,41.14
2023-02-04T08:57:35.000Z,40.78
2023-02-04T09:02:35.000Z,40.35
2023-02-04T09:07:35.000Z,42.53
2023-02-04T09:12:35.000Z,42.37
2023-02-04T09:17:35.000Z,41.03
2023-02-04T09:22:34.000Z,41.8
2023-02-04T09:27:35.000Z,34.79
2023-02-04T09:32:34.000Z,33.55
2023-02-04T09:37:35.000Z,31.65
2023-02-04T09:42:35.000Z,32.35
2023-02-04T09:47:34.000Z,32.45
2023-02-04T09:52:35.000Z,33.56
2023-02-04T09:57:34.000Z,30.84
2023-02-04T10:02:35.000Z,27.86
2023-02-04T10:07:35.000Z,27.86
2023-02-04T10:12:35.000Z,22.1
2023-02-04T10:17:34.000Z,24.01
2023-02-04T10:22:35.000Z,26.05
2023-02-04T10:27:34.000Z,25.17
2023-02-04T10:32:34.000Z,22.59
2023-02-04T10:37:35.000Z,25.29
2023-02-04T10:42:35.000Z,27.24
2023-02-04T10:47:35.000Z,25.9
2023-02-04T10:52:34.000Z,36.47
2023-02-04T10:57:35.000Z,29.27
2023-02-04T11:02:34.000Z,32.08
2023-02-04T11:07:35.000Z,31.38
2023-02-04T11:12:35.000Z,30.2
2023-02-04T11:17:35.000Z,28.16
2023-02-04T11:22:35.000Z,28.16
2023-02-04T11:27:35.000Z,28.79
2023-02-04T11:32:35.000Z,33.94
2023-02-04T11:37:35.000Z,33.37
2023-02-04T11:42:35.000Z,32.2
2023-02-04T11:47:34.000Z,33.54
2023-02-04T11:52:35.000Z,34.51
2023-02-04T11:57:34.000Z,35.68
2023-02-04T12:02:35.000Z,32.19
2023-02-04T12:07:35.000Z,32.43
2023-02-04T12:12:35.000Z,30.74
2023-02-04T12:17:35.000Z,30.92
2023-02-04T12:22:35.000Z,30.54
2023-02-04T12:27:34.000Z,30.95
2023-02-04T12:32:35.000Z,31.85
2023-02-04T12:37:35.000Z,31.85
2023-02-04T12:42:35.000Z,34.19
2023-02-04T12:47:34.000Z,34.57
2023-02-04T12:52:35.000Z,34.26
2023-02-04T12:57:35.000Z,33.51
2023-02-04T13:02:34.000Z,33.25
2023-02-04T13:07:35.000Z,33.07
2023-02-04T13:12:35.000Z,32.41
2023-02-04T13:17:35.000Z,34.73
2023-02-04T13:22:35.000Z,33.61
2023-02-04T13:27:35.000Z,31.8
2023-02-04T13:32:34.000Z,33.63
2023-02-04T13:37:35.000Z,38.12
2023-02-04T13:42:34.000Z,34.97
2023-02-04T13:47:35.000Z,32.76
2023-02-04T13:52:34.000Z,32.76
2023-02-04T13:57:35.000Z,31.64
2023-02-04T14:02:35.000Z,29.35
2023-02-04T14:07:35.000Z,28.94
2023-02-04T14:12:35.000Z,32.01
2023-02-04T14:17:35.000Z,33.28
2023-02-04T14:22:34.000Z,33.7
2023-02-04T14:27:35.000Z,33.81
2023-02-04T14:32:34.000Z,31.2
2023-02-04T14:37:35.000Z,32.32
2023-02-04T14:42:34.000Z,32.39
2023-02-04T14:47:35.000Z,33.61
2023-02-04T14:52:34.000Z,37.76
2023-02-04T14:57:35.000Z,42.47
2023-02-04T15:02:35.000Z,42.47
2023-02-04T15:07:35.000Z,40.89
2023-02-04T15:12:35.000Z,37.9
2023-02-04T15:17:35.000Z,37.76
2023-02-04T15:22:34.000Z,40.01
2023-02-04T15:27:34.000Z,40.43
2023-02-04T15:32:35.000Z,40.74
2023-02-04T15:37:35.000Z,40.76
2023-02-04T15:42:34.000Z,40.45
2023-02-04T15:47:35.000Z,41.16
2023-02-04T15:52:36.000Z,39.08
2023-02-04T15:57:35.000Z,39.08
2023-02-04T16:02:35.000Z,39.36
2023-02-04T16:07:35.000Z,41.07
2023-02-04T16:12:35.000Z,41.39
2023-02-04T16:17:35.000Z,39.21
2023-02-04T16:22:35.000Z,36.36
2023-02-04T16:27:34.000Z,31.71
2023-02-04T16:32:35.000Z,32.8
2023-02-04T16:37:34.000Z,33.63
2023-02-04T16:42:35.000Z,31.66
2023-02-04T16:47:34.000Z,33.27
2023-02-04T16:52:35.000Z,36.44
2023-02-04T16:57:34.000Z,33.83
2023-02-04T17:02:35.000Z,32.73
2023-02-04T17:07:34.000Z,32.73
2023-02-04T17:12:34.000Z,33.18
2023-02-04T17:17:35.000Z,33.46
2023-02-04T17:22:35.000Z,34.56
2023-02-04T17:27:35.000Z,32.4
2023-02-04T17:32:35.000Z,32.44
2023-02-04T17:37:36.000Z,32.46
2023-02-04T17:42:35.000Z,33.2
2023-02-04T17:47:35.000Z,33.04
2023-02-04T17:57:35.000Z,31.94
2023-02-04T18:02:35.000Z,32.64
2023-02-04T18:07:34.000Z,32.47
2023-02-04T18:12:35.000Z,32.47
2023-02-04T18:17:35.000Z,32.95
2023-02-04T18:22:35.000Z,32.59
2023-02-04T18:27:35.000Z,32
2023-02-04T18:32:35.000Z,32.38
2023-02-04T18:37:34.000Z,32.07
2023-02-04T18:42:35.000Z,33.14
2023-02-04T18:47:35.000Z,33.69
2023-02-04T18:52:35.000Z,33.69
2023-02-04T18:57:35.000Z,34.54
2023-02-04T19:07:35.000Z,33.1
2023-02-04T19:12:35.000Z,33.1
2023-02-04T19:17:34.000Z,33.18
2023-02-04T19:22:35.000Z,32.69
2023-02-04T19:27:35.000Z,31.36
2023-02-04T19:32:35.000Z,32.15
2023-02-04T19:37:35.000Z,32.98
2023-02-04T19:42:35.000Z,31.83
2023-02-04T19:47:35.000Z,31.66
2023-02-04T19:52:34.000Z,33.9
2023-02-04T19:57:35.000Z,33.1
2023-02-04T20:02:35.000Z,37.43
2023-02-04T20:07:35.000Z,42.61
2023-02-04T20:12:35.000Z,46.47
2023-02-04T20:17:35.000Z,36.6
2023-02-04T20:22:35.000Z,32.01
2023-02-04T20:27:35.000Z,32.01
2023-02-04T20:32:34.000Z,31.35
2023-02-04T20:37:34.000Z,29.55
2023-02-04T20:42:34.000Z,29.36
2023-02-04T20:47:35.000Z,30.08
2023-02-04T20:52:34.000Z,29.65
2023-02-04T20:57:35.000Z,28.09
2023-02-04T21:02:34.000Z,28.22
2023-02-04T21:07:35.000Z,26.27
2023-02-04T21:12:35.000Z,26.83
2023-02-04T21:17:35.000Z,25.18
2023-02-04T21:22:35.000Z,26.51
2023-02-04T21:27:35.000Z,27.32
2023-02-04T21:32:34.000Z,26.83
2023-02-04T21:37:35.000Z,29.17
2023-02-04T21:42:34.000Z,29.17
2023-02-04T21:47:35.000Z,29.27
2023-02-04T21:52:34.000Z,30.74
2023-02-04T21:57:35.000Z,34.09
2023-02-04T22:02:35.000Z,35.47
2023-02-04T22:07:35.000Z,36.7
2023-02-04T22:12:35.000Z,37.16
2023-02-04T22:17:34.000Z,36.58
2023-02-04T22:22:35.000Z,39.11
2023-02-04T22:27:34.000Z,37.5
2023-02-04T22:32:35.000Z,30.53
2023-02-04T22:37:34.000Z,29.66
2023-02-04T22:42:35.000Z,26.98
2023-02-04T22:47:34.000Z,26.24
2023-02-04T22:52:35.000Z,26.88
2023-02-04T22:57:34.000Z,26.88
2023-02-04T23:02:35.000Z,25.58
2023-02-04T23:07:35.000Z,23.81
2023-02-04T23:12:35.000Z,23.36
2023-02-04T23:17:34.000Z,23.15
2023-02-04T23:22:35.000Z,24.25
2023-02-04T23:27:34.000Z,23.91
2023-02-04T23:32:35.000Z,24.61
2023-02-04T23:37:35.000Z,21.13
2023-02-04T23:42:35.000Z,21.65
2023-02-04T23:47:34.000Z,21.57
2023-02-04T23:52:35.000Z,21.58
2023-02-04T23:57:35.000Z,20.4
